< Typhoon 202020 2020 Season Typhoon 202022 >
Typhoon 202021 (ETAU)
General InformationTrack Information on Google MapsDetailed Wind InformationForecast History on Google MapsAccess Analytics MapList of All Images || NewsDisaster Info.WeblogTrackbackTyphoon FrontTwiphoonTyphoon Now!Typhoon ImaginationJMA Disaster Info. XMLResourceGoogle EarthGE AnimationAtom FeedGeoJSON
Detalied Best Track (Time Zone = UTC)
Year Month Day Hour Lat. Long. Pressure (hPa) Wind (kt) Class Image Chart
2020 11 8 00 12.8 121.5 1006 30 2 Image Chart
2020 11 8 03 12.7 120.7 1006 30 2 Image Chart
2020 11 8 06 13.6 120.0 1004 30 2 Image Chart
2020 11 8 09 12.8 119.2 1004 30 2 Image Chart
2020 11 8 12 12.7 118.2 1004 30 2 Image Chart
2020 11 8 15 12.7 117.1 1004 30 2 Image Chart
2020 11 8 18 13.0 115.4 998 35 3 Image Chart
2020 11 8 21 13.1 114.7 998 35 3 Image Chart
2020 11 9 00 13.1 113.8 996 40 3 Image Chart
2020 11 9 03 13.1 112.7 996 40 3 Image Chart
2020 11 9 06 13.0 112.4 992 45 3 Image Chart
2020 11 9 09 12.8 111.9 992 45 3 Image Chart
2020 11 9 12 12.1 111.6 996 40 3 Image Chart
2020 11 9 15 11.9 111.4 996 40 3 Image Chart
2020 11 9 18 11.9 111.2 996 40 3 Image Chart
2020 11 9 21 12.1 111.1 996 40 3 Image Chart
2020 11 10 00 12.2 110.3 998 35 3 Image Chart
2020 11 10 03 12.2 109.6 1000 35 3 Image Chart
2020 11 10 06 12.6 109.1 1000 35 3 Image Chart
2020 11 10 09 13.0 109.0 1004 0 2 Image Chart
Japan Meteorological Agency Best Track Data | Correction Date : 2020-11-10
< Typhoon 202020 2020 Season Typhoon 202022 >

Help